Time;durP1;ratioP1;P1;durP2;ratioP2;P2;SDS_P1;SDS_P2;PMS_P1;PMS_P2;Temp;Humidity;BMP_temperature;BMP_pressure;BME280_temperature;BME280_humidity;BME280_pressure;Samples;Min_cycle;Max_cycle;Signal;HPM_P1;HPM_P2
2021/11/27 00:02:17;;;;;;;1.27;1.17;;;5.50;99.90;;;;;;5053276;28;20075;-77
2021/11/27 00:04:44;;;;;;;1.40;1.17;;;5.50;99.90;;;;;;5053142;28;20029;-78
2021/11/27 00:07:10;;;;;;;1.10;0.98;;;5.50;99.90;;;;;;5050908;28;20519;-77
2021/11/27 00:09:35;;;;;;;1.10;1.00;;;5.50;99.90;;;;;;5052733;28;20028;-76
2021/11/27 00:12:02;;;;;;;1.23;1.13;;;5.50;99.90;;;;;;5053951;28;20477;-77
2021/11/27 00:14:28;;;;;;;1.42;1.33;;;5.50;99.90;;;;;;5048500;28;20030;-77
2021/11/27 00:16:54;;;;;;;1.15;1.10;;;5.50;99.90;;;;;;5042886;28;20634;-77
2021/11/27 00:19:19;;;;;;;3.08;2.03;;;5.30;99.90;;;;;;5054097;28;20044;-77
2021/11/27 00:21:45;;;;;;;1.55;1.40;;;5.30;99.90;;;;;;5053308;28;20028;-76
2021/11/27 00:24:11;;;;;;;2.22;2.03;;;5.30;99.90;;;;;;5052267;28;20100;-76
2021/11/27 00:26:37;;;;;;;2.30;1.98;;;5.40;99.90;;;;;;5052035;28;20033;-77
2021/11/27 00:29:04;;;;;;;2.38;2.10;;;5.40;99.90;;;;;;5052237;28;20021;-77
2021/11/27 00:31:30;;;;;;;2.20;2.00;;;5.40;99.90;;;;;;5049501;28;20028;-77
2021/11/27 00:33:57;;;;;;;2.60;2.15;;;5.30;99.90;;;;;;5052191;28;20021;-76
2021/11/27 00:36:24;;;;;;;2.45;2.05;;;5.10;99.90;;;;;;5052009;28;20095;-77
2021/11/27 00:38:51;;;;;;;2.38;2.13;;;5.10;99.90;;;;;;5052480;28;20179;-77
2021/11/27 00:41:18;;;;;;;3.60;2.83;;;5.10;99.90;;;;;;5052632;28;20547;-77
2021/11/27 00:43:45;;;;;;;3.50;2.95;;;5.00;99.90;;;;;;5051632;28;20028;-77
2021/11/27 00:46:11;;;;;;;3.28;2.97;;;5.00;99.90;;;;;;5052856;28;20070;-77
2021/11/27 00:48:37;;;;;;;5.50;3.58;;;5.20;99.90;;;;;;5052039;28;20017;-77
2021/11/27 00:51:06;;;;;;;4.32;3.55;;;5.20;99.90;;;;;;5049011;28;20455;-76
2021/11/27 00:53:33;;;;;;;5.40;3.97;;;5.20;99.90;;;;;;5051649;28;20017;-77
2021/11/27 00:55:59;;;;;;;4.75;3.85;;;5.30;99.90;;;;;;5049268;28;20075;-78
2021/11/27 00:58:25;;;;;;;5.80;4.53;;;5.20;99.90;;;;;;5048241;28;20025;-77
2021/11/27 01:00:57;;;;;;;6.28;4.50;;;5.20;99.90;;;;;;5051139;28;20420;-76
2021/11/27 01:03:26;;;;;;;5.70;4.10;;;5.20;99.90;;;;;;5051771;28;20026;-79
2021/11/27 01:05:53;;;;;;;5.40;4.45;;;5.10;99.90;;;;;;5048849;28;20021;-77
2021/11/27 01:08:19;;;;;;;6.20;4.63;;;5.10;99.90;;;;;;5052043;28;20387;-76
2021/11/27 01:10:50;;;;;;;5.18;4.35;;;5.20;99.90;;;;;;5051017;28;20033;-76
2021/11/27 01:13:17;;;;;;;6.18;4.80;;;5.20;99.90;;;;;;5051504;28;20013;-76
2021/11/27 01:15:43;;;;;;;6.57;4.65;;;5.20;99.90;;;;;;5052077;28;20553;-76
2021/11/27 01:18:10;;;;;;;7.07;5.00;;;5.20;99.90;;;;;;5052207;28;20017;-76
2021/11/27 01:20:43;;;;;;;8.02;5.30;;;5.20;99.90;;;;;;5051525;28;20021;-76
2021/11/27 01:23:10;;;;;;;7.45;5.25;;;5.20;99.90;;;;;;5052489;28;20060;-76
2021/11/27 01:25:37;;;;;;;7.05;5.07;;;5.10;99.90;;;;;;5052310;28;20055;-76
2021/11/27 01:28:03;;;;;;;6.65;5.03;;;5.20;99.90;;;;;;5051185;28;20031;-76
2021/11/27 01:30:29;;;;;;;9.25;5.32;;;5.20;99.90;;;;;;5050927;28;20026;-76
2021/11/27 01:32:55;;;;;;;8.32;6.00;;;5.30;99.90;;;;;;5051157;28;20099;-76
2021/11/27 01:35:21;;;;;;;9.63;6.20;;;5.30;99.90;;;;;;5051756;28;20112;-76
2021/11/27 01:37:47;;;;;;;7.70;5.45;;;5.30;99.90;;;;;;5035752;28;20017;-76
2021/11/27 01:40:18;;;;;;;8.25;5.43;;;5.40;99.90;;;;;;5051894;28;20070;-75
2021/11/27 01:42:44;;;;;;;8.38;5.30;;;5.50;99.90;;;;;;5052238;28;20485;-76
2021/11/27 01:45:12;;;;;;;11.40;6.10;;;5.50;99.90;;;;;;5046575;28;20055;-76
2021/11/27 01:47:38;;;;;;;7.60;5.80;;;5.60;99.90;;;;;;5050791;28;20023;-76
2021/11/27 01:50:06;;;;;;;10.73;6.22;;;5.60;99.90;;;;;;5051670;28;20040;-76
2021/11/27 01:52:32;;;;;;;10.48;6.05;;;5.60;99.90;;;;;;5051538;28;20021;-76
2021/11/27 01:54:58;;;;;;;10.40;6.10;;;5.70;99.90;;;;;;5050862;28;20436;-76
2021/11/27 01:57:24;;;;;;;11.55;6.35;;;5.60;99.90;;;;;;5044064;28;20097;-76
2021/11/27 01:59:49;;;;;;;9.18;5.47;;;5.50;99.90;;;;;;5046187;28;20025;-76
2021/11/27 02:02:16;;;;;;;10.73;6.63;;;5.50;99.90;;;;;;5037841;28;20382;-76
2021/11/27 02:04:43;;;;;;;9.55;6.10;;;5.50;99.90;;;;;;5038474;28;20068;-76
2021/11/27 02:07:09;;;;;;;9.20;5.72;;;5.30;99.90;;;;;;5045235;28;20018;-77
2021/11/27 02:09:37;;;;;;;12.10;6.72;;;5.40;99.90;;;;;;5044785;28;20393;-77
2021/11/27 02:12:06;;;;;;;11.38;6.93;;;5.30;99.90;;;;;;5045743;28;20475;-76
2021/11/27 02:14:32;;;;;;;10.75;6.70;;;5.40;99.90;;;;;;5043159;28;20469;-76
2021/11/27 02:16:58;;;;;;;10.52;6.35;;;5.40;99.90;;;;;;5048222;28;20071;-77
2021/11/27 02:19:24;;;;;;;10.13;6.20;;;5.50;99.90;;;;;;5046467;28;20045;-76
2021/11/27 02:21:50;;;;;;;9.10;5.68;;;5.50;99.90;;;;;;5045269;28;20714;-77
2021/11/27 02:24:18;;;;;;;8.90;5.72;;;5.50;99.90;;;;;;5042788;28;20025;-77
2021/11/27 02:26:45;;;;;;;10.82;5.75;;;5.50;99.90;;;;;;5044632;28;20111;-77
2021/11/27 02:29:16;;;;;;;8.57;5.93;;;5.60;99.90;;;;;;5045635;28;20563;-77
2021/11/27 02:31:43;;;;;;;10.65;6.47;;;5.50;99.90;;;;;;5042802;28;20028;-77
2021/11/27 02:34:09;;;;;;;9.95;6.18;;;5.60;99.90;;;;;;5044674;28;20022;-76
2021/11/27 02:36:37;;;;;;;10.85;6.70;;;5.60;99.90;;;;;;5050275;28;20112;-77
2021/11/27 02:39:05;;;;;;;10.20;6.68;;;5.60;99.90;;;;;;5053643;28;20029;-77
2021/11/27 02:41:31;;;;;;;9.05;6.30;;;5.70;99.90;;;;;;5052324;28;20489;-76
2021/11/27 02:43:57;;;;;;;10.82;7.00;;;5.70;99.90;;;;;;5054134;28;20021;-77
2021/11/27 02:46:23;;;;;;;8.30;5.90;;;5.80;99.90;;;;;;5045720;28;20474;-76
2021/11/27 02:48:48;;;;;;;11.15;7.28;;;5.80;99.90;;;;;;5034844;28;20112;-77
2021/11/27 02:51:14;;;;;;;15.18;8.27;;;5.70;99.90;;;;;;5046746;28;20605;-77
2021/11/27 02:53:40;;;;;;;11.75;7.68;;;5.70;99.90;;;;;;5035458;28;20040;-79
2021/11/27 02:56:06;;;;;;;10.82;7.13;;;5.80;99.90;;;;;;5054077;28;20032;-77
2021/11/27 02:58:33;;;;;;;11.77;8.07;;;5.80;99.90;;;;;;5039168;28;20026;-77
2021/11/27 03:01:01;;;;;;;16.92;9.10;;;5.80;99.90;;;;;;5035293;28;20038;-77
2021/11/27 03:03:27;;;;;;;14.18;8.90;;;5.90;99.90;;;;;;5035097;28;20028;-77
2021/11/27 03:05:53;;;;;;;13.27;8.77;;;5.80;99.90;;;;;;5035177;28;20033;-77
2021/11/27 03:08:19;;;;;;;19.25;10.68;;;5.90;99.90;;;;;;5040722;28;20019;-77
2021/11/27 03:10:45;;;;;;;18.17;10.02;;;5.90;99.90;;;;;;5055059;28;20397;-77
2021/11/27 03:13:13;;;;;;;18.58;10.77;;;5.90;99.90;;;;;;5053623;28;20013;-77
2021/11/27 03:15:42;;;;;;;16.58;10.13;;;5.90;99.90;;;;;;5039431;28;20057;-77
2021/11/27 03:18:09;;;;;;;21.88;12.25;;;5.90;99.90;;;;;;5049265;28;20025;-77
2021/11/27 03:20:36;;;;;;;22.00;11.85;;;5.80;99.90;;;;;;5052997;28;20025;-77
2021/11/27 03:23:02;;;;;;;24.83;12.98;;;5.90;99.90;;;;;;5053395;28;20021;-77
2021/11/27 03:25:28;;;;;;;22.25;12.80;;;5.80;99.90;;;;;;5053773;28;20469;-77
2021/11/27 03:27:54;;;;;;;30.55;13.85;;;5.90;99.90;;;;;;5045382;28;20065;-77
2021/11/27 03:30:20;;;;;;;25.88;13.35;;;5.90;99.90;;;;;;5033490;28;20065;-77
2021/11/27 03:32:47;;;;;;;30.35;14.02;;;5.90;99.90;;;;;;5042942;28;20029;-77
2021/11/27 03:35:13;;;;;;;22.35;13.23;;;5.90;99.90;;;;;;5053504;28;20025;-77
2021/11/27 03:37:40;;;;;;;30.02;15.93;;;5.90;99.90;;;;;;5052339;28;20079;-77
2021/11/27 03:40:08;;;;;;;27.70;14.52;;;5.90;99.90;;;;;;5054546;28;20024;-77
2021/11/27 03:42:34;;;;;;;30.38;15.75;;;5.90;99.90;;;;;;5053235;28;20522;-77
2021/11/27 03:45:00;;;;;;;27.15;15.73;;;6.00;99.90;;;;;;5051600;28;20086;-77
2021/11/27 03:47:26;;;;;;;25.27;14.85;;;5.90;99.90;;;;;;5035034;28;20092;-77
2021/11/27 03:49:52;;;;;;;26.15;14.52;;;5.90;99.90;;;;;;5035049;28;20502;-77
2021/11/27 03:52:20;;;;;;;24.70;14.13;;;5.90;99.90;;;;;;5054243;28;20029;-77
2021/11/27 03:54:48;;;;;;;26.33;14.15;;;5.90;99.90;;;;;;5053945;28;20028;-77
2021/11/27 03:57:14;;;;;;;26.02;14.20;;;5.90;99.90;;;;;;5052036;28;20033;-77
2021/11/27 03:59:40;;;;;;;27.05;15.00;;;5.90;99.90;;;;;;5032823;28;20219;-77
2021/11/27 04:02:06;;;;;;;30.15;14.88;;;5.80;99.90;;;;;;5034234;28;20018;-77
2021/11/27 04:04:34;;;;;;;26.13;15.05;;;5.80;99.90;;;;;;5034378;28;20100;-77
2021/11/27 04:07:01;;;;;;;23.20;14.13;;;5.90;99.90;;;;;;5034176;28;20072;-77
2021/11/27 04:09:27;;;;;;;29.05;14.05;;;5.90;99.90;;;;;;5042515;28;20381;-77
2021/11/27 04:11:53;;;;;;;24.38;13.60;;;6.00;99.90;;;;;;5052827;28;20028;-77
2021/11/27 04:14:18;;;;;;;27.60;15.40;;;6.00;99.90;;;;;;5053624;28;20106;-77
2021/11/27 04:16:44;;;;;;;28.55;13.95;;;6.00;99.90;;;;;;5053733;28;20444;-77
2021/11/27 04:19:10;;;;;;;26.58;15.05;;;5.90;99.90;;;;;;5052194;28;20025;-77
2021/11/27 04:21:36;;;;;;;21.40;12.27;;;5.90;99.90;;;;;;5053256;28;20032;-77
2021/11/27 04:24:02;;;;;;;24.48;12.90;;;5.90;99.90;;;;;;5053034;28;20470;-77
2021/11/27 04:26:28;;;;;;;29.00;14.18;;;5.90;99.90;;;;;;5053760;28;20040;-77
2021/11/27 04:28:55;;;;;;;25.92;13.70;;;5.80;99.90;;;;;;5052220;28;20028;-77
2021/11/27 04:31:22;;;;;;;35.45;14.55;;;5.80;99.90;;;;;;5050342;28;20795;-77
2021/11/27 04:33:49;;;;;;;25.83;12.90;;;5.80;99.90;;;;;;5052220;28;20025;-77
2021/11/27 04:36:18;;;;;;;24.15;12.45;;;5.70;99.90;;;;;;5053536;28;20112;-77
2021/11/27 04:38:44;;;;;;;23.65;12.13;;;5.80;99.90;;;;;;5053168;28;20456;-77
2021/11/27 04:41:10;;;;;;;38.75;14.88;;;5.80;99.90;;;;;;5052924;28;20044;-77
2021/11/27 04:43:36;;;;;;;27.55;13.40;;;5.70;99.90;;;;;;5052952;28;20057;-78
2021/11/27 04:46:02;;;;;;;32.70;14.93;;;5.80;99.90;;;;;;5052868;28;20024;-77
2021/11/27 04:48:28;;;;;;;31.50;12.70;;;5.80;99.90;;;;;;5053289;28;20029;-77
2021/11/27 04:50:54;;;;;;;27.55;14.02;;;5.70;99.90;;;;;;5053129;28;20512;-77
2021/11/27 04:53:20;;;;;;;28.27;13.30;;;5.80;99.90;;;;;;5053194;28;20025;-78
2021/11/27 04:55:45;;;;;;;29.63;13.75;;;5.80;99.90;;;;;;5052256;28;20076;-77
2021/11/27 04:58:11;;;;;;;34.97;14.25;;;5.80;99.90;;;;;;5052075;28;20515;-77
2021/11/27 05:00:40;;;;;;;26.55;12.82;;;5.80;99.90;;;;;;5053068;28;20027;-77
2021/11/27 05:03:06;;;;;;;31.38;13.52;;;5.70;99.90;;;;;;5054134;28;20020;-77
2021/11/27 05:05:32;;;;;;;25.35;13.63;;;5.70;99.90;;;;;;5053448;28;20028;-77
2021/11/27 05:07:58;;;;;;;30.73;14.52;;;5.70;99.90;;;;;;5050090;28;20061;-77
2021/11/27 05:10:25;;;;;;;25.25;12.90;;;5.70;99.90;;;;;;5033078;28;20072;-77
2021/11/27 05:12:51;;;;;;;28.38;13.50;;;5.70;99.90;;;;;;5032555;28;20117;-77
2021/11/27 05:15:17;;;;;;;27.73;13.38;;;5.70;99.90;;;;;;5032347;28;20061;-78
2021/11/27 05:17:43;;;;;;;29.00;13.68;;;5.70;99.90;;;;;;5044559;28;20056;-77
2021/11/27 05:20:09;;;;;;;31.45;13.88;;;5.60;99.90;;;;;;5052770;28;20036;-77
2021/11/27 05:22:35;;;;;;;27.83;13.10;;;5.60;99.90;;;;;;5053244;28;20018;-77
2021/11/27 05:25:01;;;;;;;26.83;13.05;;;5.60;99.90;;;;;;5051494;28;20431;-77
2021/11/27 05:27:28;;;;;;;24.60;12.70;;;5.60;99.90;;;;;;5050683;28;20052;-77
2021/11/27 05:29:54;;;;;;;30.08;13.98;;;5.50;99.90;;;;;;5051576;28;20485;-77
2021/11/27 05:32:23;;;;;;;33.03;14.05;;;5.50;99.90;;;;;;5052743;28;20036;-77
2021/11/27 05:34:49;;;;;;;32.67;15.45;;;5.50;99.90;;;;;;5052300;28;20492;-77
2021/11/27 05:37:16;;;;;;;29.50;13.88;;;5.50;99.90;;;;;;5052542;28;20098;-78
2021/11/27 05:39:43;;;;;;;28.92;14.50;;;5.50;99.90;;;;;;5052488;28;20028;-78
2021/11/27 05:42:10;;;;;;;28.30;13.48;;;5.50;99.90;;;;;;5056358;28;20096;-78
2021/11/27 05:44:36;;;;;;;24.08;13.23;;;5.40;99.90;;;;;;5037080;28;20099;-79
2021/11/27 05:47:03;;;;;;;29.40;13.63;;;5.40;99.90;;;;;;5036647;28;20025;-78
2021/11/27 05:49:28;;;;;;;23.83;12.88;;;5.40;99.90;;;;;;5044364;28;20053;-79
2021/11/27 05:51:54;;;;;;;27.48;13.20;;;5.40;99.90;;;;;;5036864;28;20080;-79
2021/11/27 05:54:20;;;;;;;25.55;13.05;;;5.30;99.90;;;;;;5036646;28;20572;-78
2021/11/27 05:56:45;;;;;;;31.13;14.23;;;5.30;99.90;;;;;;5036392;28;20081;-79
2021/11/27 05:59:11;;;;;;;30.02;13.93;;;5.30;99.90;;;;;;5050638;28;20040;-79
2021/11/27 06:01:37;;;;;;;27.55;11.45;;;5.20;99.90;;;;;;5056676;28;20021;-79
2021/11/27 06:04:03;;;;;;;44.28;12.20;;;5.10;99.90;;;;;;5056577;28;20398;-79
2021/11/27 06:06:29;;;;;;;23.45;10.90;;;5.10;99.90;;;;;;5056316;28;20062;-79
2021/11/27 06:08:55;;;;;;;19.48;10.70;;;5.10;99.90;;;;;;5056250;28;20028;-79
2021/11/27 06:11:22;;;;;;;19.27;10.30;;;5.00;99.90;;;;;;5054069;28;20029;-79
2021/11/27 06:13:48;;;;;;;23.27;11.05;;;4.90;99.90;;;;;;5036147;28;20072;-79
2021/11/27 06:16:13;;;;;;;20.23;9.90;;;4.80;99.90;;;;;;5035274;28;20034;-80
2021/11/27 06:18:39;;;;;;;22.30;11.23;;;4.70;99.90;;;;;;5055600;28;20056;-80
2021/11/27 06:21:05;;;;;;;43.00;14.40;;;4.70;99.90;;;;;;5054742;28;20021;-79
2021/11/27 06:23:32;;;;;;;22.48;10.15;;;4.60;99.90;;;;;;5054864;28;20029;-80
2021/11/27 06:25:57;;;;;;;16.83;9.80;;;4.70;99.90;;;;;;5041152;28;20036;-79
2021/11/27 06:28:23;;;;;;;28.38;12.40;;;4.70;99.90;;;;;;5041495;28;20028;-79
2021/11/27 06:30:50;;;;;;;25.92;12.38;;;4.80;99.90;;;;;;5049048;28;20121;-79
2021/11/27 06:33:16;;;;;;;26.27;12.60;;;4.80;99.90;;;;;;5033873;28;20590;-79
2021/11/27 06:35:42;;;;;;;25.33;12.27;;;4.80;99.90;;;;;;5035984;28;20064;-79
2021/11/27 06:38:08;;;;;;;23.10;11.55;;;4.80;99.90;;;;;;5034333;28;20025;-80
2021/11/27 06:40:33;;;;;;;22.92;12.20;;;4.80;99.90;;;;;;5038404;28;20105;-79
2021/11/27 06:43:02;;;;;;;25.45;12.05;;;4.80;99.90;;;;;;5035783;28;20040;-80
2021/11/27 06:45:30;;;;;;;27.35;12.25;;;4.70;99.90;;;;;;5035107;28;20025;-80
2021/11/27 06:47:55;;;;;;;24.40;11.48;;;4.70;99.90;;;;;;5035320;28;20466;-79
2021/11/27 06:50:21;;;;;;;32.00;12.95;;;4.70;99.90;;;;;;5045752;28;20128;-80
2021/11/27 06:52:47;;;;;;;21.85;10.82;;;4.60;99.90;;;;;;5055331;28;20441;-80
2021/11/27 06:55:13;;;;;;;24.67;13.10;;;4.60;99.90;;;;;;5053700;28;20031;-80
2021/11/27 06:57:38;;;;;;;24.10;11.82;;;4.60;99.90;;;;;;5054704;28;20033;-81
2021/11/27 07:00:06;;;;;;;25.45;12.25;;;4.60;99.90;;;;;;5049686;28;20053;-82
2021/11/27 07:02:31;;;;;;;25.25;12.73;;;4.60;99.90;;;;;;5054768;28;20037;-81
2021/11/27 07:04:57;;;;;;;23.10;12.35;;;4.60;99.90;;;;;;5054634;28;20036;-81
2021/11/27 07:07:23;;;;;;;24.15;11.57;;;4.60;99.90;;;;;;5053571;28;20021;-81
2021/11/27 07:09:49;;;;;;;26.45;12.40;;;4.50;99.90;;;;;;5054886;28;20385;-80
2021/11/27 07:12:14;;;;;;;25.75;13.43;;;4.60;99.90;;;;;;5055106;28;20033;-80
2021/11/27 07:14:40;;;;;;;29.70;13.25;;;4.50;99.90;;;;;;5053432;28;20036;-81
2021/11/27 07:17:06;;;;;;;30.60;14.40;;;4.50;99.90;;;;;;5053092;28;20056;-81
2021/11/27 07:19:32;;;;;;;35.35;17.60;;;4.50;99.90;;;;;;5034191;28;20029;-83
2021/11/27 07:22:01;;;;;;;38.22;18.08;;;4.40;99.90;;;;;;5039453;28;20393;-81
2021/11/27 07:24:27;;;;;;;39.75;18.38;;;4.30;99.90;;;;;;5043445;28;20088;-83
2021/11/27 07:26:53;;;;;;;37.75;18.40;;;4.30;99.90;;;;;;5051487;28;20056;-83
2021/11/27 07:29:19;;;;;;;38.53;18.02;;;4.30;99.90;;;;;;5042454;28;20044;-83
2021/11/27 07:31:46;;;;;;;46.03;19.73;;;4.30;99.90;;;;;;5042207;28;20477;-84
2021/11/27 07:34:12;;;;;;;43.92;20.42;;;4.40;99.90;;;;;;5041714;28;20021;-85
2021/11/27 07:36:38;;;;;;;45.65;20.27;;;4.40;99.90;;;;;;5045240;28;20021;-81
2021/11/27 07:39:05;;;;;;;47.50;22.75;;;4.40;99.90;;;;;;5043608;28;20021;-82
2021/11/27 07:41:31;;;;;;;47.28;20.17;;;4.30;99.90;;;;;;5042958;28;20018;-83
2021/11/27 07:43:57;;;;;;;50.92;19.65;;;4.30;99.90;;;;;;5046640;28;20039;-83
2021/11/27 07:46:23;;;;;;;51.25;20.60;;;4.30;99.90;;;;;;5043103;28;20041;-81
2021/11/27 07:48:48;;;;;;;52.40;20.02;;;4.30;99.90;;;;;;5042555;28;20389;-80
2021/11/27 07:51:14;;;;;;;56.33;23.02;;;4.30;99.90;;;;;;5049736;28;20524;-80
2021/11/27 07:53:41;;;;;;;49.88;20.95;;;4.30;99.90;;;;;;5053077;28;20041;-86
2021/11/27 07:56:08;;;;;;;52.67;19.67;;;4.30;99.90;;;;;;5052455;28;20029;-84
2021/11/27 07:58:33;;;;;;;42.80;18.48;;;4.30;99.90;;;;;;5046844;28;20025;-82
2021/11/27 08:00:59;;;;;;;52.45;22.65;;;4.30;99.90;;;;;;5043762;28;20174;-82
2021/11/27 08:03:25;;;;;;;45.83;19.63;;;4.40;99.90;;;;;;5045472;28;20014;-82
2021/11/27 08:05:50;;;;;;;61.25;21.92;;;4.40;99.90;;;;;;5051422;28;20088;-82
2021/11/27 08:08:16;;;;;;;51.45;18.92;;;4.40;99.90;;;;;;5052795;28;20029;-79
2021/11/27 08:10:42;;;;;;;51.28;21.45;;;4.30;99.90;;;;;;5032697;28;20568;-82
2021/11/27 08:13:08;;;;;;;43.05;18.77;;;4.40;99.90;;;;;;5039506;28;20071;-82
2021/11/27 08:15:34;;;;;;;163.40;27.63;;;4.40;99.90;;;;;;5034722;28;20029;-81
2021/11/27 08:18:01;;;;;;;54.00;19.85;;;4.40;99.90;;;;;;5047512;28;20017;-83
2021/11/27 08:20:27;;;;;;;53.58;22.52;;;4.30;99.90;;;;;;5052050;28;20055;-79
2021/11/27 08:22:54;;;;;;;48.35;20.80;;;4.30;99.90;;;;;;5051292;28;20021;-80
2021/11/27 08:25:21;;;;;;;53.30;21.90;;;4.30;99.90;;;;;;5034657;28;20041;-87
2021/11/27 08:27:47;;;;;;;57.17;22.27;;;4.30;99.90;;;;;;5052087;28;20017;-81
2021/11/27 08:30:13;;;;;;;47.38;22.08;;;4.30;99.90;;;;;;5051595;28;20473;-82
2021/11/27 08:32:39;;;;;;;61.28;22.23;;;4.40;99.90;;;;;;5052208;28;20028;-82
2021/11/27 08:35:07;;;;;;;60.22;22.95;;;4.40;99.90;;;;;;5050617;28;20028;-82
2021/11/27 08:37:32;;;;;;;51.38;21.70;;;4.40;99.90;;;;;;5050314;28;20540;-81
2021/11/27 08:39:59;;;;;;;54.55;22.40;;;4.40;99.90;;;;;;5053437;28;20105;-80
2021/11/27 08:42:26;;;;;;;49.72;19.23;;;4.40;99.90;;;;;;5039419;28;20116;-80
2021/11/27 08:44:53;;;;;;;56.05;20.35;;;4.30;99.90;;;;;;5047291;28;20560;-80
2021/11/27 08:47:20;;;;;;;42.28;19.27;;;4.30;99.90;;;;;;5053023;28;20542;-81
2021/11/27 08:49:47;;;;;;;52.90;18.33;;;4.40;99.90;;;;;;5032570;28;20037;-80
2021/11/27 08:52:12;;;;;;;44.10;18.25;;;4.50;99.90;;;;;;5032902;28;20026;-80
2021/11/27 08:54:39;;;;;;;44.53;17.60;;;4.50;99.90;;;;;;5030608;28;20025;-80
2021/11/27 08:57:05;;;;;;;36.72;16.08;;;4.40;99.90;;;;;;5032025;28;20022;-80
2021/11/27 08:59:31;;;;;;;43.45;16.95;;;4.40;99.90;;;;;;5032177;28;20033;-81
2021/11/27 09:01:58;;;;;;;50.75;17.75;;;4.40;99.90;;;;;;5035340;28;20496;-80
2021/11/27 09:04:24;;;;;;;44.00;16.13;;;4.40;99.90;;;;;;5034236;28;20029;-80
2021/11/27 09:06:49;;;;;;;42.33;17.45;;;4.50;99.90;;;;;;5030987;28;20029;-81
2021/11/27 09:09:15;;;;;;;38.95;16.25;;;4.50;99.90;;;;;;5039528;28;20024;-80
2021/11/27 09:11:41;;;;;;;39.83;17.92;;;4.50;99.90;;;;;;5052447;28;20532;-78
2021/11/27 09:14:07;;;;;;;40.10;18.00;;;4.60;99.90;;;;;;5045968;28;20532;-81
2021/11/27 09:16:34;;;;;;;38.15;15.90;;;4.60;99.90;;;;;;5034302;28;20033;-79
2021/11/27 09:19:04;;;;;;;38.78;17.10;;;4.60;99.90;;;;;;5051936;28;20048;-80
2021/11/27 09:21:30;;;;;;;38.97;16.60;;;4.70;99.90;;;;;;5052166;28;20028;-80
2021/11/27 09:23:56;;;;;;;42.60;15.85;;;4.80;99.90;;;;;;5052359;28;20462;-80
2021/11/27 09:26:21;;;;;;;41.38;17.17;;;4.90;99.90;;;;;;5051361;28;20112;-80
2021/11/27 09:28:47;;;;;;;36.25;15.07;;;4.90;99.90;;;;;;5051968;28;20123;-79
2021/11/27 09:31:13;;;;;;;29.77;14.02;;;4.90;99.90;;;;;;5050075;28;20056;-81
2021/11/27 09:33:39;;;;;;;36.10;15.07;;;5.00;99.90;;;;;;5048433;28;20029;-80
2021/11/27 09:36:07;;;;;;;39.08;15.95;;;5.10;99.90;;;;;;5041401;28;20017;-80
2021/11/27 09:38:35;;;;;;;35.35;14.20;;;5.10;99.90;;;;;;5045651;28;20017;-79
2021/11/27 09:41:25;;;;;;;33.38;13.85;;;5.10;99.90;;;;;;5042123;28;20104;-80
2021/11/27 09:43:53;;;;;;;35.00;13.13;;;5.10;99.90;;;;;;5041548;28;20028;-79
2021/11/27 09:46:21;;;;;;;33.50;12.73;;;5.10;99.90;;;;;;5041662;28;20385;-79
2021/11/27 09:48:51;;;;;;;36.33;12.57;;;5.10;99.90;;;;;;5041400;28;20021;-76
2021/11/27 09:51:22;;;;;;;28.20;12.90;;;5.20;99.90;;;;;;5042469;28;20068;-76
2021/11/27 09:53:49;;;;;;;26.98;13.00;;;5.30;99.90;;;;;;5048851;28;20033;-77
2021/11/27 09:56:16;;;;;;;26.90;11.88;;;5.40;99.90;;;;;;5044479;28;20033;-77
2021/11/27 09:58:44;;;;;;;28.60;12.15;;;5.40;99.90;;;;;;5051918;28;20029;-77
2021/11/27 10:01:13;;;;;;;26.05;11.48;;;5.30;99.90;;;;;;5044039;28;20120;-77
2021/11/27 10:03:41;;;;;;;31.48;11.82;;;5.30;99.90;;;;;;5050946;28;20100;-78
2021/11/27 10:06:08;;;;;;;22.88;10.05;;;5.40;99.90;;;;;;5051733;28;20052;-78
2021/11/27 10:08:34;;;;;;;26.75;10.77;;;5.40;99.90;;;;;;5049990;28;20378;-79
2021/11/27 10:11:01;;;;;;;27.85;11.68;;;5.40;99.90;;;;;;5051942;28;20037;-77
2021/11/27 10:13:27;;;;;;;26.63;10.35;;;5.50;99.90;;;;;;5049951;28;20025;-78
2021/11/27 10:15:53;;;;;;;21.50;10.77;;;5.50;99.90;;;;;;5042244;28;20029;-78
2021/11/27 10:18:22;;;;;;;25.65;10.90;;;5.60;99.90;;;;;;5042406;28;20363;-78
2021/11/27 10:21:07;;;;;;;26.73;9.50;;;5.60;99.90;;;;;;5041080;28;20025;-77
2021/11/27 10:23:33;;;;;;;26.80;10.15;;;5.70;99.90;;;;;;5064281;28;20032;-76
2021/11/27 10:25:59;;;;;;;23.33;9.35;;;5.70;99.90;;;;;;5048947;28;20029;-78
2021/11/27 10:28:28;;;;;;;25.30;9.63;;;5.60;99.90;;;;;;5053055;28;20078;-78
2021/11/27 10:31:00;;;;;;;19.17;8.10;;;5.80;99.90;;;;;;5054856;28;20082;-76
2021/11/27 10:33:27;;;;;;;22.30;8.13;;;5.70;99.90;;;;;;5035865;28;20029;-78
2021/11/27 10:36:01;;;;;;;21.20;7.05;;;5.60;99.90;;;;;;5035378;28;20057;-78
2021/11/27 10:38:45;;;;;;;12.73;7.05;;;5.50;99.90;;;;;;5035055;28;20017;-78
2021/11/27 10:41:16;;;;;;;21.50;7.30;;;5.50;99.90;;;;;;5045773;28;20029;-77
2021/11/27 10:44:06;;;;;;;14.75;6.78;;;5.50;99.90;;;;;;5044424;28;20059;-78
2021/11/27 10:46:37;;;;;;;19.88;7.63;;;5.60;99.90;;;;;;5045586;28;20032;-76
2021/11/27 10:49:05;;;;;;;20.08;7.45;;;5.60;99.90;;;;;;5044305;28;20022;-77
2021/11/27 10:51:32;;;;;;;19.95;8.23;;;5.70;99.90;;;;;;5044796;28;20048;-77
2021/11/27 10:54:01;;;;;;;19.17;7.95;;;5.60;99.90;;;;;;5044082;28;20098;-77
2021/11/27 10:56:47;;;;;;;18.60;8.43;;;5.70;99.90;;;;;;5044736;28;20055;-77
2021/11/27 10:59:15;;;;;;;25.88;7.72;;;5.70;99.90;;;;;;5044956;28;20044;-77
2021/11/27 11:02:01;;;;;;;18.85;8.63;;;5.70;99.90;;;;;;5043225;28;20456;-77
2021/11/27 11:04:30;;;;;;;24.90;9.57;;;5.80;99.90;;;;;;5044452;28;20021;-79
2021/11/27 11:07:25;;;;;;;21.00;8.75;;;5.80;99.90;;;;;;5042194;28;20013;-77
2021/11/27 11:10:12;;;;;;;23.77;7.90;;;5.90;99.90;;;;;;5035446;28;20037;-77
2021/11/27 11:13:01;;;;;;;19.88;8.77;;;6.00;99.90;;;;;;5032615;28;20030;-77
2021/11/27 11:15:31;;;;;;;22.77;8.00;;;6.00;99.90;;;;;;5034831;28;20550;-77
2021/11/27 11:18:18;;;;;;;16.65;7.72;;;6.00;99.90;;;;;;5048066;28;20032;-77
2021/11/27 11:20:50;;;;;;;23.25;8.10;;;6.10;99.90;;;;;;5054898;28;20432;-78
2021/11/27 11:23:24;;;;;;;18.92;7.68;;;6.30;99.90;;;;;;5052953;28;20032;-78
2021/11/27 11:26:13;;;;;;;17.23;6.93;;;6.40;99.90;;;;;;5054301;28;20029;-78
2021/11/27 11:28:52;;;;;;;15.35;6.68;;;6.40;99.90;;;;;;5054065;28;20021;-78
2021/11/27 11:31:23;;;;;;;16.88;6.47;;;6.50;99.90;;;;;;5037656;28;20037;-78
2021/11/27 11:33:53;;;;;;;17.50;5.70;;;6.50;99.90;;;;;;5054498;28;20017;-78
2021/11/27 11:36:20;;;;;;;14.60;5.75;;;6.60;99.90;;;;;;5054018;28;20029;-79
2021/11/27 11:38:52;;;;;;;12.65;5.93;;;6.70;99.90;;;;;;5049044;28;20032;-79
2021/11/27 11:41:20;;;;;;;25.10;7.20;;;6.80;99.90;;;;;;5053811;28;20025;-79
2021/11/27 11:43:46;;;;;;;16.77;6.20;;;6.90;99.90;;;;;;5038813;28;20022;-79
2021/11/27 11:46:12;;;;;;;16.17;5.85;;;6.90;99.90;;;;;;5045699;28;20025;-78
2021/11/27 11:48:46;;;;;;;15.32;5.68;;;6.90;99.90;;;;;;5049117;28;20100;-79
2021/11/27 11:51:24;;;;;;;14.48;6.35;;;7.00;99.90;;;;;;5053496;28;20056;-78
2021/11/27 11:53:56;;;;;;;11.75;5.70;;;7.10;99.90;;;;;;5052415;28;20033;-79
2021/11/27 11:56:31;;;;;;;19.05;5.50;;;7.20;99.90;;;;;;5052404;28;20556;-81
2021/11/27 11:59:18;;;;;;;15.32;5.57;;;7.20;99.90;;;;;;5051916;28;20466;-81
2021/11/27 12:01:43;;;;;;;18.05;5.70;;;7.20;99.90;;;;;;5049589;28;20021;-80
2021/11/27 12:04:21;;;;;;;17.80;6.13;;;7.20;99.90;;;;;;5047891;28;20515;-80
2021/11/27 12:06:47;;;;;;;16.05;5.68;;;7.10;99.90;;;;;;5042181;28;20025;-80
2021/11/27 12:09:14;;;;;;;67.45;26.85;;;7.00;99.90;;;;;;5047020;28;20021;-81
2021/11/27 12:11:46;;;;;;;15.18;7.07;;;7.10;99.90;;;;;;5046081;28;20068;-83
2021/11/27 12:14:38;;;;;;;17.80;6.57;;;7.10;99.90;;;;;;5042676;28;20033;-80
2021/11/27 12:17:16;;;;;;;14.17;6.00;;;7.10;99.90;;;;;;5045334;28;20033;-80
2021/11/27 12:19:45;;;;;;;16.60;6.28;;;7.20;99.90;;;;;;5043877;28;20112;-80
2021/11/27 12:22:33;;;;;;;19.95;5.75;;;7.30;99.90;;;;;;5051720;28;20021;-80
2021/11/27 12:25:11;;;;;;;13.10;5.97;;;7.20;99.90;;;;;;5052322;28;20037;-80
2021/11/27 12:27:59;;;;;;;14.02;6.18;;;7.20;99.90;;;;;;5047698;28;20098;-81
2021/11/27 12:30:25;;;;;;;14.32;7.63;;;7.20;99.90;;;;;;5052781;28;20389;-79
2021/11/27 12:32:52;;;;;;;18.00;6.55;;;7.20;99.90;;;;;;5052928;28;20547;-89
2021/11/27 12:35:28;;;;;;;17.73;6.65;;;7.30;99.90;;;;;;5051262;28;20021;-80
2021/11/27 12:38:12;;;;;;;21.63;6.93;;;7.30;99.90;;;;;;5052674;28;20767;-80
2021/11/27 12:40:48;;;;;;;16.67;7.00;;;7.30;99.90;;;;;;5053092;28;20032;-81
2021/11/27 12:43:19;;;;;;;12.80;6.05;;;7.30;99.90;;;;;;5051207;28;20447;-81
2021/11/27 12:45:47;;;;;;;15.13;6.28;;;7.20;99.90;;;;;;5045910;28;20056;-81
2021/11/27 12:48:31;;;;;;;14.63;6.22;;;7.30;99.90;;;;;;5049857;28;20029;-83